sensor_id;sensor_type;location;lat;lon;timestamp;P1;durP1;ratioP1;P2;durP2;ratioP2
49800;SDS011;35698;50.232;30.540;2022-09-02T00:00:15;6.26;;;2.79;;
49800;SDS011;35698;50.232;30.540;2022-09-02T00:01:27;6.35;;;2.79;;
49800;SDS011;35698;50.232;30.540;2022-09-02T00:02:42;6.51;;;3.09;;
49800;SDS011;35698;50.232;30.540;2022-09-02T00:03:46;4.62;;;2.81;;
49800;SDS011;35698;50.232;30.540;2022-09-02T00:04:49;4.34;;;2.57;;
49800;SDS011;35698;50.232;30.540;2022-09-02T00:06:01;5.82;;;2.32;;
49800;SDS011;35698;50.232;30.540;2022-09-02T00:07:05;5.19;;;2.81;;
49800;SDS011;35698;50.232;30.540;2022-09-02T00:08:37;8.72;;;2.86;;
49800;SDS011;35698;50.232;30.540;2022-09-02T00:09:42;3.63;;;2.64;;
49800;SDS011;35698;50.232;30.540;2022-09-02T00:10:46;6.07;;;2.84;;
49800;SDS011;35698;50.232;30.540;2022-09-02T00:11:50;4.91;;;2.88;;
49800;SDS011;35698;50.232;30.540;2022-09-02T00:13:04;6.17;;;2.84;;
49800;SDS011;35698;50.232;30.540;2022-09-02T00:14:10;3.92;;;2.87;;
49800;SDS011;35698;50.232;30.540;2022-09-02T00:15:23;6.65;;;3.06;;
49800;SDS011;35698;50.232;30.540;2022-09-02T00:16:27;4.05;;;2.43;;
49800;SDS011;35698;50.232;30.540;2022-09-02T00:17:49;6.70;;;2.95;;
49800;SDS011;35698;50.232;30.540;2022-09-02T00:19:00;2.74;;;2.44;;
49800;SDS011;35698;50.232;30.540;2022-09-02T00:20:04;7.10;;;2.82;;
49800;SDS011;35698;50.232;30.540;2022-09-02T00:21:08;5.97;;;2.68;;
49800;SDS011;35698;50.232;30.540;2022-09-02T00:22:13;3.89;;;2.50;;
49800;SDS011;35698;50.232;30.540;2022-09-02T00:23:24;5.12;;;2.82;;
49800;SDS011;35698;50.232;30.540;2022-09-02T00:24:30;4.32;;;2.54;;
49800;SDS011;35698;50.232;30.540;2022-09-02T00:25:34;5.50;;;2.52;;
49800;SDS011;35698;50.232;30.540;2022-09-02T00:26:39;3.63;;;2.54;;
49800;SDS011;35698;50.232;30.540;2022-09-02T00:27:43;3.90;;;2.43;;
49800;SDS011;35698;50.232;30.540;2022-09-02T00:28:55;4.33;;;2.81;;
49800;SDS011;35698;50.232;30.540;2022-09-02T00:29:59;8.05;;;3.05;;
49800;SDS011;35698;50.232;30.540;2022-09-02T00:31:11;3.20;;;2.49;;
49800;SDS011;35698;50.232;30.540;2022-09-02T00:32:16;4.61;;;2.71;;
49800;SDS011;35698;50.232;30.540;2022-09-02T00:33:27;3.13;;;2.50;;
49800;SDS011;35698;50.232;30.540;2022-09-02T00:34:30;4.11;;;2.80;;
49800;SDS011;35698;50.232;30.540;2022-09-02T00:35:35;9.32;;;2.77;;
49800;SDS011;35698;50.232;30.540;2022-09-02T00:36:39;4.49;;;2.61;;
49800;SDS011;35698;50.232;30.540;2022-09-02T00:37:50;9.71;;;2.65;;
49800;SDS011;35698;50.232;30.540;2022-09-02T00:38:53;6.68;;;2.99;;
49800;SDS011;35698;50.232;30.540;2022-09-02T00:40:05;6.69;;;2.52;;
49800;SDS011;35698;50.232;30.540;2022-09-02T00:41:10;7.66;;;2.53;;
49800;SDS011;35698;50.232;30.540;2022-09-02T00:42:14;5.96;;;2.56;;
49800;SDS011;35698;50.232;30.540;2022-09-02T00:43:36;4.38;;;2.37;;
49800;SDS011;35698;50.232;30.540;2022-09-02T00:44:48;7.49;;;2.98;;
49800;SDS011;35698;50.232;30.540;2022-09-02T00:45:52;7.85;;;2.39;;
49800;SDS011;35698;50.232;30.540;2022-09-02T00:47:03;6.14;;;2.52;;
49800;SDS011;35698;50.232;30.540;2022-09-02T00:48:06;5.22;;;2.65;;
49800;SDS011;35698;50.232;30.540;2022-09-02T00:49:14;10.32;;;2.76;;
49800;SDS011;35698;50.232;30.540;2022-09-02T00:50:28;5.05;;;2.73;;
49800;SDS011;35698;50.232;30.540;2022-09-02T00:51:42;8.49;;;3.08;;
49800;SDS011;35698;50.232;30.540;2022-09-02T00:53:07;7.27;;;2.98;;
49800;SDS011;35698;50.232;30.540;2022-09-02T00:54:13;9.60;;;3.22;;
49800;SDS011;35698;50.232;30.540;2022-09-02T00:56:39;10.18;;;2.94;;
49800;SDS011;35698;50.232;30.540;2022-09-02T00:59:01;9.67;;;3.51;;
49800;SDS011;35698;50.232;30.540;2022-09-02T01:00:11;6.36;;;2.47;;
49800;SDS011;35698;50.232;30.540;2022-09-02T01:01:17;10.39;;;3.19;;
49800;SDS011;35698;50.232;30.540;2022-09-02T01:02:29;10.59;;;3.41;;
49800;SDS011;35698;50.232;30.540;2022-09-02T01:03:34;12.09;;;3.34;;
49800;SDS011;35698;50.232;30.540;2022-09-02T01:04:45;6.95;;;3.04;;
49800;SDS011;35698;50.232;30.540;2022-09-02T01:05:49;10.42;;;2.69;;
49800;SDS011;35698;50.232;30.540;2022-09-02T01:06:55;10.87;;;3.61;;
49800;SDS011;35698;50.232;30.540;2022-09-02T01:08:07;5.21;;;2.75;;
49800;SDS011;35698;50.232;30.540;2022-09-02T01:09:11;6.37;;;2.89;;
49800;SDS011;35698;50.232;30.540;2022-09-02T01:12:54;8.39;;;3.24;;
49800;SDS011;35698;50.232;30.540;2022-09-02T01:13:59;6.76;;;2.75;;
49800;SDS011;35698;50.232;30.540;2022-09-02T01:15:11;8.24;;;3.67;;
49800;SDS011;35698;50.232;30.540;2022-09-02T01:16:18;5.14;;;2.87;;
49800;SDS011;35698;50.232;30.540;2022-09-02T01:17:37;7.18;;;2.93;;
49800;SDS011;35698;50.232;30.540;2022-09-02T01:18:44;4.95;;;2.63;;
49800;SDS011;35698;50.232;30.540;2022-09-02T01:19:59;6.84;;;2.86;;
49800;SDS011;35698;50.232;30.540;2022-09-02T01:21:08;7.57;;;2.96;;
49800;SDS011;35698;50.232;30.540;2022-09-02T01:22:19;5.80;;;2.96;;
49800;SDS011;35698;50.232;30.540;2022-09-02T01:23:36;5.24;;;3.17;;
49800;SDS011;35698;50.232;30.540;2022-09-02T01:24:39;8.09;;;3.33;;
49800;SDS011;35698;50.232;30.540;2022-09-02T01:25:43;5.83;;;2.77;;
49800;SDS011;35698;50.232;30.540;2022-09-02T01:26:50;5.82;;;2.99;;
49800;SDS011;35698;50.232;30.540;2022-09-02T01:27:58;11.01;;;2.68;;
49800;SDS011;35698;50.232;30.540;2022-09-02T01:29:12;7.22;;;3.17;;
49800;SDS011;35698;50.232;30.540;2022-09-02T01:30:18;4.39;;;3.12;;
49800;SDS011;35698;50.232;30.540;2022-09-02T01:31:31;6.51;;;3.22;;
49800;SDS011;35698;50.232;30.540;2022-09-02T01:32:34;12.04;;;3.04;;
49800;SDS011;35698;50.232;30.540;2022-09-02T01:33:46;7.73;;;3.36;;
49800;SDS011;35698;50.232;30.540;2022-09-02T01:34:49;12.67;;;3.52;;
49800;SDS011;35698;50.232;30.540;2022-09-02T01:35:54;6.71;;;3.38;;
49800;SDS011;35698;50.232;30.540;2022-09-02T01:36:58;8.79;;;3.25;;
49800;SDS011;35698;50.232;30.540;2022-09-02T01:38:10;8.87;;;3.51;;
49800;SDS011;35698;50.232;30.540;2022-09-02T01:39:14;9.65;;;2.94;;
49800;SDS011;35698;50.232;30.540;2022-09-02T01:40:26;7.09;;;3.13;;
49800;SDS011;35698;50.232;30.540;2022-09-02T01:41:31;7.17;;;3.68;;
49800;SDS011;35698;50.232;30.540;2022-09-02T01:42:34;12.26;;;3.24;;
49800;SDS011;35698;50.232;30.540;2022-09-02T01:43:38;6.36;;;2.84;;
49800;SDS011;35698;50.232;30.540;2022-09-02T01:44:49;8.31;;;3.38;;
49800;SDS011;35698;50.232;30.540;2022-09-02T01:45:53;9.84;;;3.68;;
49800;SDS011;35698;50.232;30.540;2022-09-02T01:46:58;7.73;;;4.08;;
49800;SDS011;35698;50.232;30.540;2022-09-02T01:48:10;11.83;;;4.07;;
49800;SDS011;35698;50.232;30.540;2022-09-02T01:49:14;11.89;;;3.80;;
49800;SDS011;35698;50.232;30.540;2022-09-02T01:50:19;13.22;;;3.76;;
49800;SDS011;35698;50.232;30.540;2022-09-02T01:51:31;8.37;;;3.89;;
49800;SDS011;35698;50.232;30.540;2022-09-02T01:52:35;7.92;;;3.41;;
49800;SDS011;35698;50.232;30.540;2022-09-02T01:53:46;7.62;;;3.82;;
49800;SDS011;35698;50.232;30.540;2022-09-02T01:54:50;5.39;;;3.86;;
49800;SDS011;35698;50.232;30.540;2022-09-02T01:55:53;7.06;;;3.77;;
49800;SDS011;35698;50.232;30.540;2022-09-02T01:56:57;6.65;;;3.52;;
49800;SDS011;35698;50.232;30.540;2022-09-02T01:58:01;7.59;;;3.49;;
49800;SDS011;35698;50.232;30.540;2022-09-02T01:59:12;11.66;;;4.04;;
49800;SDS011;35698;50.232;30.540;2022-09-02T02:00:17;9.51;;;4.36;;
49800;SDS011;35698;50.232;30.540;2022-09-02T02:01:21;10.65;;;4.09;;
49800;SDS011;35698;50.232;30.540;2022-09-02T02:02:25;6.41;;;3.81;;
49800;SDS011;35698;50.232;30.540;2022-09-02T02:03:38;9.38;;;4.69;;
49800;SDS011;35698;50.232;30.540;2022-09-02T02:04:41;8.96;;;4.56;;
49800;SDS011;35698;50.232;30.540;2022-09-02T02:05:52;8.59;;;4.63;;
49800;SDS011;35698;50.232;30.540;2022-09-02T02:06:57;8.63;;;4.51;;
49800;SDS011;35698;50.232;30.540;2022-09-02T02:08:01;7.86;;;4.38;;
49800;SDS011;35698;50.232;30.540;2022-09-02T02:09:06;7.52;;;4.42;;
49800;SDS011;35698;50.232;30.540;2022-09-02T02:10:18;12.44;;;4.76;;
49800;SDS011;35698;50.232;30.540;2022-09-02T02:11:23;9.93;;;5.19;;
49800;SDS011;35698;50.232;30.540;2022-09-02T02:12:35;8.38;;;4.98;;
49800;SDS011;35698;50.232;30.540;2022-09-02T02:13:40;6.81;;;3.96;;
49800;SDS011;35698;50.232;30.540;2022-09-02T02:14:44;10.26;;;4.37;;
49800;SDS011;35698;50.232;30.540;2022-09-02T02:15:47;9.59;;;4.71;;
49800;SDS011;35698;50.232;30.540;2022-09-02T02:16:52;13.84;;;5.11;;
49800;SDS011;35698;50.232;30.540;2022-09-02T02:18:03;8.08;;;5.68;;
49800;SDS011;35698;50.232;30.540;2022-09-02T02:19:07;13.76;;;6.19;;
49800;SDS011;35698;50.232;30.540;2022-09-02T02:20:11;11.85;;;7.09;;
49800;SDS011;35698;50.232;30.540;2022-09-02T02:21:24;14.43;;;6.73;;
49800;SDS011;35698;50.232;30.540;2022-09-02T02:22:27;18.30;;;7.26;;
49800;SDS011;35698;50.232;30.540;2022-09-02T02:23:39;15.61;;;7.68;;
49800;SDS011;35698;50.232;30.540;2022-09-02T02:24:42;16.39;;;7.61;;
49800;SDS011;35698;50.232;30.540;2022-09-02T02:25:46;20.14;;;8.73;;
49800;SDS011;35698;50.232;30.540;2022-09-02T02:26:49;13.81;;;8.29;;
49800;SDS011;35698;50.232;30.540;2022-09-02T02:28:00;12.52;;;7.84;;
49800;SDS011;35698;50.232;30.540;2022-09-02T02:29:05;12.77;;;7.57;;
49800;SDS011;35698;50.232;30.540;2022-09-02T02:30:16;13.85;;;8.00;;
49800;SDS011;35698;50.232;30.540;2022-09-02T02:31:20;16.22;;;7.34;;
49800;SDS011;35698;50.232;30.540;2022-09-02T02:32:33;14.47;;;8.12;;
49800;SDS011;35698;50.232;30.540;2022-09-02T02:33:36;18.08;;;8.49;;
49800;SDS011;35698;50.232;30.540;2022-09-02T02:34:40;14.81;;;7.95;;
49800;SDS011;35698;50.232;30.540;2022-09-02T02:35:44;15.55;;;8.63;;
49800;SDS011;35698;50.232;30.540;2022-09-02T02:36:56;22.61;;;8.49;;
49800;SDS011;35698;50.232;30.540;2022-09-02T02:37:59;19.84;;;8.91;;
49800;SDS011;35698;50.232;30.540;2022-09-02T02:39:05;15.01;;;8.03;;
49800;SDS011;35698;50.232;30.540;2022-09-02T02:41:37;22.84;;;8.12;;
49800;SDS011;35698;50.232;30.540;2022-09-02T02:42:50;14.55;;;7.82;;
49800;SDS011;35698;50.232;30.540;2022-09-02T02:43:55;14.76;;;8.66;;
49800;SDS011;35698;50.232;30.540;2022-09-02T02:45:07;14.26;;;6.86;;
49800;SDS011;35698;50.232;30.540;2022-09-02T02:46:13;11.01;;;7.33;;
49800;SDS011;35698;50.232;30.540;2022-09-02T02:47:18;14.86;;;8.09;;
49800;SDS011;35698;50.232;30.540;2022-09-02T02:48:21;15.06;;;8.30;;
49800;SDS011;35698;50.232;30.540;2022-09-02T02:49:37;12.88;;;7.73;;
49800;SDS011;35698;50.232;30.540;2022-09-02T02:50:41;15.56;;;8.46;;
49800;SDS011;35698;50.232;30.540;2022-09-02T02:51:44;11.62;;;7.60;;
49800;SDS011;35698;50.232;30.540;2022-09-02T02:52:56;7.95;;;5.92;;
49800;SDS011;35698;50.232;30.540;2022-09-02T02:53:59;9.94;;;6.09;;
49800;SDS011;35698;50.232;30.540;2022-09-02T02:55:04;10.70;;;5.59;;
49800;SDS011;35698;50.232;30.540;2022-09-02T02:56:16;11.41;;;6.15;;
49800;SDS011;35698;50.232;30.540;2022-09-02T02:57:22;7.69;;;5.59;;
49800;SDS011;35698;50.232;30.540;2022-09-02T02:58:26;7.71;;;5.46;;
49800;SDS011;35698;50.232;30.540;2022-09-02T02:59:30;7.96;;;6.15;;
49800;SDS011;35698;50.232;30.540;2022-09-02T03:00:33;8.35;;;5.92;;
49800;SDS011;35698;50.232;30.540;2022-09-02T03:01:40;10.17;;;6.31;;
49800;SDS011;35698;50.232;30.540;2022-09-02T03:02:55;9.37;;;6.49;;
49800;SDS011;35698;50.232;30.540;2022-09-02T03:04:00;11.01;;;6.12;;
49800;SDS011;35698;50.232;30.540;2022-09-02T03:05:04;10.23;;;7.12;;
49800;SDS011;35698;50.232;30.540;2022-09-02T03:06:10;11.01;;;6.90;;
49800;SDS011;35698;50.232;30.540;2022-09-02T03:07:13;10.53;;;6.78;;
49800;SDS011;35698;50.232;30.540;2022-09-02T03:08:25;9.44;;;6.71;;
49800;SDS011;35698;50.232;30.540;2022-09-02T03:09:28;18.31;;;9.10;;
49800;SDS011;35698;50.232;30.540;2022-09-02T03:10:40;16.32;;;8.62;;
49800;SDS011;35698;50.232;30.540;2022-09-02T03:11:44;15.12;;;8.61;;
49800;SDS011;35698;50.232;30.540;2022-09-02T03:12:57;13.41;;;8.78;;
49800;SDS011;35698;50.232;30.540;2022-09-02T03:14:01;15.95;;;8.31;;
49800;SDS011;35698;50.232;30.540;2022-09-02T03:15:05;14.07;;;7.81;;
49800;SDS011;35698;50.232;30.540;2022-09-02T03:16:10;15.19;;;8.80;;
49800;SDS011;35698;50.232;30.540;2022-09-02T03:17:14;11.93;;;8.98;;
49800;SDS011;35698;50.232;30.540;2022-09-02T03:18:25;14.43;;;9.13;;
49800;SDS011;35698;50.232;30.540;2022-09-02T03:19:29;12.09;;;8.45;;
49800;SDS011;35698;50.232;30.540;2022-09-02T03:20:33;16.36;;;9.82;;
49800;SDS011;35698;50.232;30.540;2022-09-02T03:21:37;16.90;;;7.71;;
49800;SDS011;35698;50.232;30.540;2022-09-02T03:22:48;13.49;;;6.93;;
49800;SDS011;35698;50.232;30.540;2022-09-02T03:23:53;10.25;;;6.82;;
49800;SDS011;35698;50.232;30.540;2022-09-02T03:25:05;11.65;;;6.73;;
49800;SDS011;35698;50.232;30.540;2022-09-02T03:26:11;12.52;;;5.96;;
49800;SDS011;35698;50.232;30.540;2022-09-02T03:27:19;12.43;;;6.15;;
49800;SDS011;35698;50.232;30.540;2022-09-02T03:28:22;8.34;;;5.77;;
49800;SDS011;35698;50.232;30.540;2022-09-02T03:29:25;10.23;;;5.76;;
49800;SDS011;35698;50.232;30.540;2022-09-02T03:30:37;11.82;;;5.89;;
49800;SDS011;35698;50.232;30.540;2022-09-02T03:31:41;11.03;;;7.06;;
49800;SDS011;35698;50.232;30.540;2022-09-02T03:32:56;12.41;;;6.92;;
49800;SDS011;35698;50.232;30.540;2022-09-02T03:34:03;14.03;;;6.74;;
49800;SDS011;35698;50.232;30.540;2022-09-02T03:35:15;9.62;;;5.77;;
49800;SDS011;35698;50.232;30.540;2022-09-02T03:36:22;9.59;;;5.58;;
49800;SDS011;35698;50.232;30.540;2022-09-02T03:37:39;11.77;;;6.28;;
49800;SDS011;35698;50.232;30.540;2022-09-02T03:38:42;10.09;;;5.48;;
49800;SDS011;35698;50.232;30.540;2022-09-02T03:39:46;8.09;;;4.95;;
49800;SDS011;35698;50.232;30.540;2022-09-02T03:40:50;9.60;;;5.59;;
49800;SDS011;35698;50.232;30.540;2022-09-02T03:41:54;8.66;;;5.11;;
49800;SDS011;35698;50.232;30.540;2022-09-02T03:43:05;18.09;;;9.82;;
49800;SDS011;35698;50.232;30.540;2022-09-02T03:44:09;14.73;;;7.45;;
49800;SDS011;35698;50.232;30.540;2022-09-02T03:45:13;14.80;;;6.47;;
49800;SDS011;35698;50.232;30.540;2022-09-02T03:46:25;11.39;;;6.24;;
49800;SDS011;35698;50.232;30.540;2022-09-02T03:47:29;10.02;;;6.33;;
49800;SDS011;35698;50.232;30.540;2022-09-02T03:48:32;14.81;;;7.46;;
49800;SDS011;35698;50.232;30.540;2022-09-02T03:49:44;9.81;;;5.88;;
49800;SDS011;35698;50.232;30.540;2022-09-02T03:50:47;18.91;;;7.68;;
49800;SDS011;35698;50.232;30.540;2022-09-02T03:51:51;26.26;;;7.24;;
49800;SDS011;35698;50.232;30.540;2022-09-02T03:52:55;12.21;;;6.33;;
49800;SDS011;35698;50.232;30.540;2022-09-02T03:54:07;12.23;;;6.62;;
49800;SDS011;35698;50.232;30.540;2022-09-02T03:55:11;14.73;;;7.49;;
49800;SDS011;35698;50.232;30.540;2022-09-02T03:56:15;9.29;;;6.78;;
49800;SDS011;35698;50.232;30.540;2022-09-02T03:57:20;12.62;;;7.46;;
49800;SDS011;35698;50.232;30.540;2022-09-02T03:58:23;11.84;;;7.99;;
49800;SDS011;35698;50.232;30.540;2022-09-02T03:59:35;14.74;;;7.17;;
49800;SDS011;35698;50.232;30.540;2022-09-02T04:00:39;11.56;;;7.92;;
49800;SDS011;35698;50.232;30.540;2022-09-02T04:01:43;12.39;;;7.24;;
49800;SDS011;35698;50.232;30.540;2022-09-02T04:02:54;10.13;;;7.27;;
49800;SDS011;35698;50.232;30.540;2022-09-02T04:03:58;15.88;;;8.07;;
49800;SDS011;35698;50.232;30.540;2022-09-02T04:05:02;15.94;;;9.05;;
49800;SDS011;35698;50.232;30.540;2022-09-02T04:06:07;17.06;;;8.52;;
49800;SDS011;35698;50.232;30.540;2022-09-02T04:07:12;11.33;;;7.78;;
49800;SDS011;35698;50.232;30.540;2022-09-02T04:08:23;14.86;;;9.39;;
49800;SDS011;35698;50.232;30.540;2022-09-02T04:09:27;16.61;;;8.49;;
49800;SDS011;35698;50.232;30.540;2022-09-02T04:10:31;19.06;;;9.76;;
49800;SDS011;35698;50.232;30.540;2022-09-02T04:11:34;17.20;;;8.48;;
49800;SDS011;35698;50.232;30.540;2022-09-02T04:12:46;15.35;;;10.29;;
49800;SDS011;35698;50.232;30.540;2022-09-02T04:13:51;9.53;;;7.00;;
49800;SDS011;35698;50.232;30.540;2022-09-02T04:14:55;8.21;;;5.78;;
49800;SDS011;35698;50.232;30.540;2022-09-02T04:16:10;8.91;;;6.13;;
49800;SDS011;35698;50.232;30.540;2022-09-02T04:17:19;13.54;;;7.04;;
49800;SDS011;35698;50.232;30.540;2022-09-02T04:18:30;10.53;;;6.71;;
49800;SDS011;35698;50.232;30.540;2022-09-02T04:19:33;10.91;;;6.31;;
49800;SDS011;35698;50.232;30.540;2022-09-02T04:20:45;10.49;;;6.26;;
49800;SDS011;35698;50.232;30.540;2022-09-02T04:21:50;10.92;;;6.70;;
49800;SDS011;35698;50.232;30.540;2022-09-02T04:23:12;9.37;;;5.83;;
49800;SDS011;35698;50.232;30.540;2022-09-02T04:24:23;7.44;;;5.87;;
49800;SDS011;35698;50.232;30.540;2022-09-02T04:25:26;10.13;;;6.21;;
49800;SDS011;35698;50.232;30.540;2022-09-02T04:26:38;8.04;;;5.79;;
49800;SDS011;35698;50.232;30.540;2022-09-02T04:27:44;17.55;;;5.92;;
49800;SDS011;35698;50.232;30.540;2022-09-02T04:28:55;11.46;;;5.77;;
49800;SDS011;35698;50.232;30.540;2022-09-02T04:29:59;11.28;;;5.73;;
49800;SDS011;35698;50.232;30.540;2022-09-02T04:31:31;11.31;;;5.89;;
49800;SDS011;35698;50.232;30.540;2022-09-02T04:32:35;11.25;;;6.73;;
49800;SDS011;35698;50.232;30.540;2022-09-02T04:33:46;16.60;;;7.53;;
49800;SDS011;35698;50.232;30.540;2022-09-02T04:34:50;9.91;;;6.41;;
49800;SDS011;35698;50.232;30.540;2022-09-02T04:35:53;9.22;;;6.66;;
49800;SDS011;35698;50.232;30.540;2022-09-02T04:36:58;16.38;;;7.39;;
49800;SDS011;35698;50.232;30.540;2022-09-02T04:38:10;16.39;;;9.14;;
49800;SDS011;35698;50.232;30.540;2022-09-02T04:40:44;13.58;;;7.89;;
49800;SDS011;35698;50.232;30.540;2022-09-02T04:41:49;11.84;;;7.67;;
49800;SDS011;35698;50.232;30.540;2022-09-02T04:42:52;11.56;;;7.83;;
49800;SDS011;35698;50.232;30.540;2022-09-02T04:44:03;12.98;;;7.18;;
49800;SDS011;35698;50.232;30.540;2022-09-02T04:45:08;13.56;;;8.08;;
49800;SDS011;35698;50.232;30.540;2022-09-02T04:46:12;16.15;;;9.95;;
49800;SDS011;35698;50.232;30.540;2022-09-02T04:47:18;11.19;;;7.25;;
49800;SDS011;35698;50.232;30.540;2022-09-02T04:48:29;14.44;;;7.94;;
49800;SDS011;35698;50.232;30.540;2022-09-02T04:49:33;11.56;;;7.84;;
49800;SDS011;35698;50.232;30.540;2022-09-02T04:50:44;13.26;;;7.69;;
49800;SDS011;35698;50.232;30.540;2022-09-02T04:51:47;14.36;;;8.46;;
49800;SDS011;35698;50.232;30.540;2022-09-02T04:52:58;12.92;;;6.92;;
49800;SDS011;35698;50.232;30.540;2022-09-02T04:54:01;10.38;;;7.44;;
49800;SDS011;35698;50.232;30.540;2022-09-02T04:55:05;12.06;;;7.45;;
49800;SDS011;35698;50.232;30.540;2022-09-02T04:56:17;15.73;;;7.49;;
49800;SDS011;35698;50.232;30.540;2022-09-02T04:57:23;13.66;;;7.06;;
49800;SDS011;35698;50.232;30.540;2022-09-02T04:58:35;20.81;;;7.08;;
49800;SDS011;35698;50.232;30.540;2022-09-02T04:59:42;21.04;;;8.78;;
49800;SDS011;35698;50.232;30.540;2022-09-02T05:01:07;21.82;;;10.83;;
49800;SDS011;35698;50.232;30.540;2022-09-02T05:02:21;16.77;;;7.51;;
49800;SDS011;35698;50.232;30.540;2022-09-02T05:03:25;15.55;;;8.11;;
49800;SDS011;35698;50.232;30.540;2022-09-02T05:04:36;14.33;;;7.99;;
49800;SDS011;35698;50.232;30.540;2022-09-02T05:05:41;10.82;;;7.01;;
49800;SDS011;35698;50.232;30.540;2022-09-02T05:06:44;15.38;;;7.98;;
49800;SDS011;35698;50.232;30.540;2022-09-02T05:07:56;14.22;;;7.73;;
49800;SDS011;35698;50.232;30.540;2022-09-02T05:08:59;9.06;;;6.71;;
49800;SDS011;35698;50.232;30.540;2022-09-02T05:10:03;13.64;;;8.87;;
49800;SDS011;35698;50.232;30.540;2022-09-02T05:11:09;10.69;;;7.49;;
49800;SDS011;35698;50.232;30.540;2022-09-02T05:13:23;16.08;;;8.71;;
49800;SDS011;35698;50.232;30.540;2022-09-02T05:14:34;18.69;;;8.68;;
49800;SDS011;35698;50.232;30.540;2022-09-02T05:15:38;17.97;;;9.24;;
49800;SDS011;35698;50.232;30.540;2022-09-02T05:18:36;29.62;;;17.32;;
49800;SDS011;35698;50.232;30.540;2022-09-02T05:19:39;26.12;;;16.02;;
49800;SDS011;35698;50.232;30.540;2022-09-02T05:20:43;35.10;;;15.75;;
49800;SDS011;35698;50.232;30.540;2022-09-02T05:21:47;27.48;;;14.92;;
49800;SDS011;35698;50.232;30.540;2022-09-02T05:24:15;32.84;;;17.02;;
49800;SDS011;35698;50.232;30.540;2022-09-02T05:25:19;31.14;;;19.07;;
49800;SDS011;35698;50.232;30.540;2022-09-02T05:26:23;34.48;;;19.98;;
49800;SDS011;35698;50.232;30.540;2022-09-02T05:27:34;36.13;;;22.34;;
49800;SDS011;35698;50.232;30.540;2022-09-02T05:28:38;38.15;;;21.49;;
49800;SDS011;35698;50.232;30.540;2022-09-02T05:29:53;40.42;;;22.34;;
49800;SDS011;35698;50.232;30.540;2022-09-02T05:31:03;37.76;;;21.32;;
49800;SDS011;35698;50.232;30.540;2022-09-02T05:32:16;36.07;;;19.22;;
49800;SDS011;35698;50.232;30.540;2022-09-02T05:33:19;36.10;;;19.91;;
49800;SDS011;35698;50.232;30.540;2022-09-02T05:34:31;36.06;;;21.33;;
49800;SDS011;35698;50.232;30.540;2022-09-02T05:35:38;36.94;;;19.29;;
49800;SDS011;35698;50.232;30.540;2022-09-02T05:36:53;38.31;;;20.02;;
49800;SDS011;35698;50.232;30.540;2022-09-02T05:37:56;31.51;;;19.20;;
49800;SDS011;35698;50.232;30.540;2022-09-02T05:39:07;38.19;;;21.01;;
49800;SDS011;35698;50.232;30.540;2022-09-02T05:40:11;34.40;;;20.44;;
49800;SDS011;35698;50.232;30.540;2022-09-02T05:41:18;41.23;;;22.43;;
49800;SDS011;35698;50.232;30.540;2022-09-02T05:42:32;41.46;;;21.78;;
49800;SDS011;35698;50.232;30.540;2022-09-02T05:43:36;41.65;;;21.99;;
49800;SDS011;35698;50.232;30.540;2022-09-02T05:44:43;42.01;;;21.13;;
49800;SDS011;35698;50.232;30.540;2022-09-02T05:45:46;34.08;;;19.54;;
49800;SDS011;35698;50.232;30.540;2022-09-02T05:46:50;38.53;;;21.20;;
49800;SDS011;35698;50.232;30.540;2022-09-02T05:47:54;32.95;;;19.34;;
49800;SDS011;35698;50.232;30.540;2022-09-02T05:48:58;34.21;;;19.88;;
49800;SDS011;35698;50.232;30.540;2022-09-02T05:50:10;35.61;;;20.07;;
49800;SDS011;35698;50.232;30.540;2022-09-02T05:51:16;34.70;;;21.05;;
49800;SDS011;35698;50.232;30.540;2022-09-02T05:52:19;38.14;;;20.62;;
49800;SDS011;35698;50.232;30.540;2022-09-02T05:53:31;36.77;;;19.12;;
49800;SDS011;35698;50.232;30.540;2022-09-02T05:54:37;31.96;;;18.28;;
49800;SDS011;35698;50.232;30.540;2022-09-02T05:55:42;37.06;;;19.63;;
49800;SDS011;35698;50.232;30.540;2022-09-02T05:56:54;32.68;;;20.08;;
49800;SDS011;35698;50.232;30.540;2022-09-02T05:58:00;29.71;;;17.99;;
49800;SDS011;35698;50.232;30.540;2022-09-02T05:59:12;35.48;;;18.80;;
49800;SDS011;35698;50.232;30.540;2022-09-02T06:00:24;30.97;;;18.13;;
49800;SDS011;35698;50.232;30.540;2022-09-02T06:01:36;31.50;;;20.02;;
49800;SDS011;35698;50.232;30.540;2022-09-02T06:02:41;31.31;;;17.87;;
49800;SDS011;35698;50.232;30.540;2022-09-02T06:03:52;33.19;;;18.93;;
49800;SDS011;35698;50.232;30.540;2022-09-02T06:04:56;31.01;;;18.00;;
49800;SDS011;35698;50.232;30.540;2022-09-02T06:05:59;31.62;;;17.74;;
49800;SDS011;35698;50.232;30.540;2022-09-02T06:07:05;34.98;;;18.98;;
49800;SDS011;35698;50.232;30.540;2022-09-02T06:08:16;32.91;;;18.61;;
49800;SDS011;35698;50.232;30.540;2022-09-02T06:09:21;37.37;;;18.83;;
49800;SDS011;35698;50.232;30.540;2022-09-02T06:10:53;33.03;;;18.12;;
49800;SDS011;35698;50.232;30.540;2022-09-02T06:11:56;34.67;;;19.22;;
49800;SDS011;35698;50.232;30.540;2022-09-02T06:13:07;38.45;;;19.96;;
49800;SDS011;35698;50.232;30.540;2022-09-02T06:14:11;33.69;;;18.59;;
49800;SDS011;35698;50.232;30.540;2022-09-02T06:15:16;36.08;;;18.88;;
49800;SDS011;35698;50.232;30.540;2022-09-02T06:16:20;32.33;;;20.70;;
49800;SDS011;35698;50.232;30.540;2022-09-02T06:17:32;31.42;;;18.21;;
49800;SDS011;35698;50.232;30.540;2022-09-02T06:18:36;34.08;;;19.08;;
49800;SDS011;35698;50.232;30.540;2022-09-02T06:19:40;31.01;;;16.57;;
49800;SDS011;35698;50.232;30.540;2022-09-02T06:20:52;30.73;;;14.76;;
49800;SDS011;35698;50.232;30.540;2022-09-02T06:21:55;32.80;;;17.73;;
49800;SDS011;35698;50.232;30.540;2022-09-02T06:23:15;31.91;;;16.76;;
49800;SDS011;35698;50.232;30.540;2022-09-02T06:24:19;29.07;;;17.00;;
49800;SDS011;35698;50.232;30.540;2022-09-02T06:25:43;31.64;;;18.11;;
49800;SDS011;35698;50.232;30.540;2022-09-02T06:26:56;34.72;;;19.24;;
49800;SDS011;35698;50.232;30.540;2022-09-02T06:28:01;41.71;;;21.13;;
49800;SDS011;35698;50.232;30.540;2022-09-02T06:29:12;38.26;;;21.71;;
49800;SDS011;35698;50.232;30.540;2022-09-02T06:30:17;30.84;;;15.64;;
49800;SDS011;35698;50.232;30.540;2022-09-02T06:31:39;26.13;;;16.19;;
49800;SDS011;35698;50.232;30.540;2022-09-02T06:32:53;22.93;;;13.60;;
49800;SDS011;35698;50.232;30.540;2022-09-02T06:33:57;18.85;;;10.69;;
49800;SDS011;35698;50.232;30.540;2022-09-02T06:35:01;17.51;;;11.39;;
49800;SDS011;35698;50.232;30.540;2022-09-02T06:36:16;18.43;;;11.10;;
49800;SDS011;35698;50.232;30.540;2022-09-02T06:37:20;20.97;;;12.53;;
49800;SDS011;35698;50.232;30.540;2022-09-02T06:38:31;28.85;;;15.96;;
49800;SDS011;35698;50.232;30.540;2022-09-02T06:39:49;29.27;;;14.92;;
49800;SDS011;35698;50.232;30.540;2022-09-02T06:40:54;29.14;;;16.01;;
49800;SDS011;35698;50.232;30.540;2022-09-02T06:42:09;26.17;;;15.16;;
49800;SDS011;35698;50.232;30.540;2022-09-02T06:43:14;22.69;;;13.22;;
49800;SDS011;35698;50.232;30.540;2022-09-02T06:44:27;19.86;;;11.76;;
49800;SDS011;35698;50.232;30.540;2022-09-02T06:45:37;16.34;;;10.43;;
49800;SDS011;35698;50.232;30.540;2022-09-02T06:46:52;20.85;;;10.85;;
49800;SDS011;35698;50.232;30.540;2022-09-02T06:47:58;20.05;;;12.62;;
49800;SDS011;35698;50.232;30.540;2022-09-02T06:49:09;20.19;;;11.95;;